Time;durP1;ratioP1;P1;durP2;ratioP2;P2;SDS_P1;SDS_P2;PMS_P1;PMS_P2;Temp;Humidity;BMP_temperature;BMP_pressure;BME280_temperature;BME280_humidity;BME280_pressure;Samples;Min_cycle;Max_cycle;Signal;HPM_P1;HPM_P2
2021/08/24 00:01:17;;;;;;;;;;;15.40;99.90;;;;;;5090601;28;19920;-80
2021/08/24 00:03:43;;;;;;;;;;;15.40;99.90;;;;;;5069879;28;19916;-81
2021/08/24 00:06:08;;;;;;;;;;;15.40;99.90;;;;;;5075176;28;20222;-82
2021/08/24 00:08:35;;;;;;;;;;;15.30;99.90;;;;;;5078857;28;19916;-82
2021/08/24 00:11:01;;;;;;;;;;;15.30;99.90;;;;;;5090070;28;19920;-81
2021/08/24 00:13:27;;;;;;;;;;;15.30;99.90;;;;;;5087249;28;19919;-82
2021/08/24 00:15:53;;;;;;;;;;;15.20;99.90;;;;;;5075110;28;19962;-82
2021/08/24 00:18:19;;;;;;;;;;;15.20;99.90;;;;;;5071319;28;20215;-81
2021/08/24 00:20:46;;;;;;;;;;;15.20;99.90;;;;;;5085486;28;20015;-81
2021/08/24 00:23:13;;;;;;;;;;;15.20;99.90;;;;;;5061111;28;19944;-82
2021/08/24 00:25:38;;;;;;;;;;;15.20;99.90;;;;;;5072252;28;19975;-81
2021/08/24 00:28:05;;;;;;;;;;;15.20;99.90;;;;;;5094879;28;20310;-82
2021/08/24 00:30:30;;;;;;;;;;;15.20;99.90;;;;;;5070716;28;20022;-82
2021/08/24 00:32:56;;;;;;;;;;;15.10;99.90;;;;;;5072783;28;20051;-82
2021/08/24 00:35:21;;;;;;;;;;;15.10;99.90;;;;;;5081294;28;19913;-81
2021/08/24 00:37:47;;;;;;;;;;;15.10;99.90;;;;;;5073871;28;19920;-81
2021/08/24 00:40:13;;;;;;;;;;;15.20;99.90;;;;;;5095618;28;19938;-81
2021/08/24 00:42:39;;;;;;;;;;;15.10;99.90;;;;;;5078710;28;19920;-81
2021/08/24 00:45:06;;;;;;;;;;;15.10;99.90;;;;;;5091779;28;20424;-80
2021/08/24 00:47:34;;;;;;;;;;;15.10;99.90;;;;;;5088519;28;19923;-80
2021/08/24 00:50:05;;;;;;;;;;;15.00;99.90;;;;;;5071390;28;19916;-80
2021/08/24 00:52:31;;;;;;;;;;;15.10;99.90;;;;;;5073116;28;19916;-79
2021/08/24 00:54:57;;;;;;;;;;;15.00;99.90;;;;;;5088209;28;19944;-81
2021/08/24 00:57:24;;;;;;;;;;;15.00;99.90;;;;;;5089554;28;19920;-81
2021/08/24 00:59:51;;;;;;;;;;;15.10;99.90;;;;;;5071267;28;20353;-81
2021/08/24 01:02:17;;;;;;;;;;;15.00;99.90;;;;;;5086671;28;20330;-80
2021/08/24 01:04:43;;;;;;;;;;;15.00;99.90;;;;;;5088577;28;19920;-81
2021/08/24 01:07:27;;;;;;;;;;;15.00;99.90;;;;;;5087977;28;20238;-80
2021/08/24 01:09:55;;;;;;;;;;;15.00;99.90;;;;;;5070095;28;19990;-79
2021/08/24 01:12:30;;;;;;;;;;;15.00;99.90;;;;;;5085851;28;19924;-81
2021/08/24 01:14:58;;;;;;;;;;;14.90;99.90;;;;;;5070501;28;19951;-80
2021/08/24 01:17:27;;;;;;;;;;;15.00;99.90;;;;;;5087608;28;19909;-80
2021/08/24 01:20:11;;;;;;;;;;;15.00;99.90;;;;;;5065174;28;19920;-82
2021/08/24 01:22:46;;;;;;;;;;;14.90;99.90;;;;;;5094223;28;19916;-81
2021/08/24 01:25:25;;;;;;;;;;;14.90;99.90;;;;;;5061007;28;20283;-81
2021/08/24 01:28:02;;;;;;;;;;;14.90;99.90;;;;;;5066094;28;19950;-80
2021/08/24 01:30:40;;;;;;;;;;;14.80;99.90;;;;;;5077185;28;19957;-82
2021/08/24 01:33:28;;;;;;;;;;;14.80;99.90;;;;;;5075645;28;19916;-81
2021/08/24 01:36:25;;;;;;;;;;;14.80;99.90;;;;;;5080038;28;19965;-80
2021/08/24 01:38:53;;;;;;;;;;;14.80;99.90;;;;;;5086684;28;19948;-81
2021/08/24 01:41:21;;;;;;;;;;;14.90;99.90;;;;;;5074348;28;20007;-81
2021/08/24 01:43:51;;;;;;;;;;;14.90;99.90;;;;;;5094162;28;20295;-78
2021/08/24 01:46:20;;;;;;;;;;;14.90;99.90;;;;;;5075890;28;19928;-79
2021/08/24 01:48:48;;;;;;;;;;;14.80;99.90;;;;;;5092106;28;20313;-79
2021/08/24 01:51:16;;;;;;;;;;;14.80;99.90;;;;;;5095868;28;19916;-81
2021/08/24 01:53:45;;;;;;;;;;;14.90;99.90;;;;;;5092314;28;20335;-79
2021/08/24 01:56:13;;;;;;;;;;;14.80;99.90;;;;;;5075229;28;19977;-79
2021/08/24 01:58:44;;;;;;;;;;;14.80;99.90;;;;;;5093294;28;19920;-79
2021/08/24 02:01:13;;;;;;;;;;;14.80;99.90;;;;;;5093904;28;20380;-79
2021/08/24 02:03:41;;;;;;;;;;;14.80;99.90;;;;;;5093548;28;19919;-80
2021/08/24 02:06:36;;;;;;;;;;;14.90;99.90;;;;;;5092760;28;19912;-81
2021/08/24 02:09:05;;;;;;;;;;;14.90;99.90;;;;;;5048547;28;19958;-79
2021/08/24 02:11:32;;;;;;;;;;;14.90;99.90;;;;;;5093020;28;19965;-78
2021/08/24 02:13:59;;;;;;;;;;;15.00;99.90;;;;;;5091831;28;20019;-78
2021/08/24 02:16:26;;;;;;;;;;;15.00;99.90;;;;;;5093295;28;19916;-79
2021/08/24 02:18:53;;;;;;;;;;;15.00;99.90;;;;;;5072214;28;20309;-79
2021/08/24 02:21:23;;;;;;;;;;;15.00;99.90;;;;;;5092207;28;20017;-79
2021/08/24 02:23:51;;;;;;;;;;;15.00;99.90;;;;;;5090394;28;19995;-78
2021/08/24 02:26:18;;;;;;;;;;;15.10;99.90;;;;;;5087213;28;20337;-77
2021/08/24 02:28:52;;;;;;;;;;;15.10;99.90;;;;;;5075431;28;20242;-79
2021/08/24 02:31:38;;;;;;;;;;;15.00;99.90;;;;;;5085891;28;20336;-78
2021/08/24 02:34:06;;;;;;;;;;;15.00;99.90;;;;;;5087827;28;19912;-80
2021/08/24 02:36:33;;;;;;;;;;;15.00;99.90;;;;;;5084872;28;19908;-78
2021/08/24 02:39:11;;;;;;;;;;;15.00;99.90;;;;;;5092720;28;19916;-79
2021/08/24 02:41:43;;;;;;;;;;;15.00;99.90;;;;;;5093772;28;19916;-82
2021/08/24 02:44:12;;;;;;;;;;;15.00;99.90;;;;;;5088909;28;19977;-79
2021/08/24 02:46:40;;;;;;;;;;;15.00;99.90;;;;;;5094858;28;20357;-79
2021/08/24 02:49:10;;;;;;;;;;;15.00;99.90;;;;;;5093887;28;19916;-78
2021/08/24 02:51:36;;;;;;;;;;;15.10;99.90;;;;;;5071633;28;20307;-79
2021/08/24 02:54:11;;;;;;;;;;;15.00;99.90;;;;;;5091516;28;19912;-79
2021/08/24 02:56:40;;;;;;;;;;;15.10;99.90;;;;;;5065178;28;19913;-78
2021/08/24 02:59:06;;;;;;;;;;;15.00;99.90;;;;;;5097486;28;19922;-78
2021/08/24 03:01:32;;;;;;;;;;;15.10;99.90;;;;;;5093155;28;19995;-80
2021/08/24 03:03:57;;;;;;;;;;;15.10;99.90;;;;;;5079221;28;20514;-79
2021/08/24 03:06:23;;;;;;;;;;;15.10;99.90;;;;;;5094501;28;20318;-79
2021/08/24 03:08:49;;;;;;;;;;;15.10;99.90;;;;;;5100657;28;19919;-80
2021/08/24 03:11:17;;;;;;;;;;;15.10;99.90;;;;;;5071378;28;19916;-79
2021/08/24 03:13:47;;;;;;;;;;;15.10;99.90;;;;;;5083652;28;20003;-80
2021/08/24 03:16:18;;;;;;;;;;;15.10;99.90;;;;;;5061838;28;20285;-80
2021/08/24 03:18:49;;;;;;;;;;;15.10;99.90;;;;;;5075473;28;20307;-79
2021/08/24 03:21:18;;;;;;;;;;;15.00;99.90;;;;;;5087012;28;19920;-80
2021/08/24 03:23:44;;;;;;;;;;;15.10;99.90;;;;;;5091745;28;19994;-80
2021/08/24 03:26:11;;;;;;;;;;;15.10;99.90;;;;;;5079304;28;19916;-80
2021/08/24 03:28:41;;;;;;;;;;;15.10;99.90;;;;;;5075589;28;19962;-81
2021/08/24 03:31:07;;;;;;;;;;;15.10;99.90;;;;;;5090562;28;20298;-80
2021/08/24 03:33:33;;;;;;;;;;;15.10;99.90;;;;;;5084910;28;19916;-81
2021/08/24 03:35:58;;;;;;;;;;;15.20;99.90;;;;;;5091087;28;19916;-79
2021/08/24 03:38:24;;;;;;;;;;;15.10;99.90;;;;;;5109533;28;20229;-80
2021/08/24 03:40:49;;;;;;;;;;;15.20;99.90;;;;;;5081351;28;19974;-80
2021/08/24 03:43:15;;;;;;;;;;;15.20;99.90;;;;;;5085990;28;19919;-80
2021/08/24 03:45:41;;;;;;;;;;;15.20;99.90;;;;;;5072873;28;19920;-80
2021/08/24 03:48:06;;;;;;;;;;;15.30;99.90;;;;;;5091245;28;19912;-80
2021/08/24 03:50:32;;;;;;;;;;;15.30;99.90;;;;;;5081434;28;19915;-80
2021/08/24 03:52:58;;;;;;;;;;;15.30;99.90;;;;;;5096994;28;20207;-80
2021/08/24 03:55:23;;;;;;;;;;;15.30;99.90;;;;;;5095055;28;19941;-79
2021/08/24 03:57:49;;;;;;;;;;;15.30;99.90;;;;;;5097732;28;19919;-80
2021/08/24 04:00:15;;;;;;;;;;;15.40;99.90;;;;;;5078436;28;20334;-79
2021/08/24 04:02:41;;;;;;;;;;;15.40;99.90;;;;;;5094617;28;20016;-78
2021/08/24 04:05:07;;;;;;;;;;;15.40;99.90;;;;;;5095475;28;19995;-78
2021/08/24 04:07:32;;;;;;;;;;;15.40;99.90;;;;;;5093334;28;19908;-79
2021/08/24 04:09:58;;;;;;;;;;;15.40;99.90;;;;;;5079410;28;20310;-80
2021/08/24 04:12:24;;;;;;;;;;;15.40;99.90;;;;;;5074959;28;19927;-78
2021/08/24 04:14:50;;;;;;;;;;;15.50;99.90;;;;;;5095002;28;19912;-79
2021/08/24 04:17:15;;;;;;;;;;;15.50;99.90;;;;;;5077346;28;19939;-79
2021/08/24 04:19:41;;;;;;;;;;;15.50;99.90;;;;;;5091027;28;19912;-77
2021/08/24 04:22:08;;;;;;;;;;;15.50;99.90;;;;;;5089619;28;19965;-79
2021/08/24 04:24:33;;;;;;;;;;;15.50;99.90;;;;;;5072977;28;19916;-78
2021/08/24 04:26:59;;;;;;;;;;;15.50;99.90;;;;;;5095955;28;19935;-79
2021/08/24 04:29:24;;;;;;;;;;;15.50;99.90;;;;;;5062318;28;19922;-79
2021/08/24 04:31:50;;;;;;;;;;;15.50;99.90;;;;;;5087734;28;19923;-80
2021/08/24 04:34:16;;;;;;;;;;;15.50;99.90;;;;;;5098188;28;19920;-78
2021/08/24 04:36:41;;;;;;;;;;;15.50;99.90;;;;;;5087028;28;19920;-79
2021/08/24 04:39:07;;;;;;;;;;;15.50;99.90;;;;;;5076574;28;19915;-79
2021/08/24 04:41:34;;;;;;;;;;;15.50;99.90;;;;;;5069293;28;19926;-78
2021/08/24 04:43:59;;;;;;;;;;;15.50;99.90;;;;;;5084758;28;19909;-79
2021/08/24 04:46:25;;;;;;;;;;;15.50;99.90;;;;;;5076324;28;20319;-79
2021/08/24 04:48:51;;;;;;;;;;;15.60;99.90;;;;;;5088757;28;19917;-78
2021/08/24 04:51:17;;;;;;;;;;;15.60;99.90;;;;;;5064396;28;20200;-79
2021/08/24 04:53:42;;;;;;;;;;;15.60;99.90;;;;;;5100255;28;19921;-79
2021/08/24 04:56:08;;;;;;;;;;;15.60;99.90;;;;;;5067453;28;19913;-79
2021/08/24 04:58:33;;;;;;;;;;;15.60;99.90;;;;;;5078732;28;19938;-77
2021/08/24 05:00:59;;;;;;;;;;;15.60;99.90;;;;;;5090946;28;20420;-79
2021/08/24 05:03:24;;;;;;;;;;;15.70;99.90;;;;;;5065523;28;19909;-80
2021/08/24 05:05:51;;;;;;;;;;;15.60;99.90;;;;;;5078029;28;19912;-79
2021/08/24 05:08:17;;;;;;;;;;;15.60;99.90;;;;;;5094676;28;20203;-78
2021/08/24 05:10:42;;;;;;;;;;;15.70;99.90;;;;;;5090332;28;19997;-78
2021/08/24 05:13:08;;;;;;;;;;;15.60;99.90;;;;;;5087758;28;19908;-79
2021/08/24 05:15:33;;;;;;;;;;;15.70;99.90;;;;;;5070903;28;19935;-79
2021/08/24 05:17:59;;;;;;;;;;;15.70;99.90;;;;;;5074845;28;20299;-80
2021/08/24 05:20:25;;;;;;;;;;;15.70;99.90;;;;;;5071003;28;20436;-79
2021/08/24 05:22:51;;;;;;;;;;;15.70;99.90;;;;;;5072837;28;20322;-81
2021/08/24 05:25:19;;;;;;;;;;;15.70;99.90;;;;;;5072599;28;19912;-81
2021/08/24 05:27:44;;;;;;;;;;;15.70;99.90;;;;;;5076130;28;19913;-81
2021/08/24 05:30:12;;;;;;;;;;;15.70;99.90;;;;;;5089357;28;19962;-81
2021/08/24 05:32:38;;;;;;;;;;;15.80;99.90;;;;;;5089381;28;20522;-79
2021/08/24 05:35:04;;;;;;;;;;;15.80;99.90;;;;;;5091481;28;19919;-81
2021/08/24 05:37:29;;;;;;;;;;;15.80;99.90;;;;;;5075404;28;19995;-80
2021/08/24 05:39:55;;;;;;;;;;;15.90;99.90;;;;;;5073504;28;20011;-79
2021/08/24 05:42:20;;;;;;;;;;;15.90;99.90;;;;;;5090859;28;19978;-80
2021/08/24 05:44:46;;;;;;;;;;;15.90;99.90;;;;;;5092693;28;19916;-80
2021/08/24 05:47:12;;;;;;;;;;;16.00;99.90;;;;;;5072511;28;20775;-80
2021/08/24 05:49:38;;;;;;;;;;;16.00;99.90;;;;;;5075334;28;19916;-79
2021/08/24 05:52:04;;;;;;;;;;;16.00;99.90;;;;;;5095034;28;19920;-80
2021/08/24 05:54:29;;;;;;;;;;;16.10;99.90;;;;;;5075754;28;20325;-78
2021/08/24 05:56:55;;;;;;;;;;;16.10;99.90;;;;;;5073184;28;19916;-82
2021/08/24 05:59:20;;;;;;;;;;;16.10;99.90;;;;;;5076082;28;19990;-81
2021/08/24 06:01:46;;;;;;;;;;;16.20;99.90;;;;;;5075363;28;19916;-81
2021/08/24 06:04:12;;;;;;;;;;;16.20;99.90;;;;;;5075722;28;19965;-80
2021/08/24 06:06:39;;;;;;;;;;;16.30;99.90;;;;;;5091810;28;20303;-79
2021/08/24 06:09:09;;;;;;;;;;;16.30;99.90;;;;;;5072138;28;19920;-81
2021/08/24 06:11:37;;;;;;;;;;;16.40;99.90;;;;;;5094454;28;19920;-79
2021/08/24 06:14:03;;;;;;;;;;;16.40;99.90;;;;;;5079221;28;19912;-77
2021/08/24 06:16:29;;;;;;;;;;;16.40;99.90;;;;;;5088143;28;19916;-80
2021/08/24 06:18:55;;;;;;;;;;;16.50;99.90;;;;;;5093414;28;19927;-82
2021/08/24 06:21:21;;;;;;;;;;;16.60;99.90;;;;;;5094860;28;19916;-80
2021/08/24 06:23:47;;;;;;;;;;;16.60;99.90;;;;;;5089647;28;20188;-78
2021/08/24 06:26:12;;;;;;;;;;;16.70;99.90;;;;;;5092049;28;20326;-80
2021/08/24 06:28:38;;;;;;;;;;;16.70;99.90;;;;;;5092845;28;19912;-79
2021/08/24 06:31:05;;;;;;;;;;;16.80;99.90;;;;;;5089865;28;19916;-78
2021/08/24 06:33:32;;;;;;;;;;;16.80;99.90;;;;;;5091333;28;19912;-80
2021/08/24 06:35:57;;;;;;;;;;;16.90;99.90;;;;;;5072796;28;19917;-79
2021/08/24 06:38:23;;;;;;;;;;;17.00;99.90;;;;;;5066100;28;19916;-79
2021/08/24 06:40:49;;;;;;;;;;;17.00;99.90;;;;;;5062391;28;19931;-78
2021/08/24 06:43:15;;;;;;;;;;;17.10;99.90;;;;;;5070505;28;19934;-77
2021/08/24 06:45:41;;;;;;;;;;;17.10;99.90;;;;;;5091610;28;20007;-78
2021/08/24 06:48:06;;;;;;;;;;;17.20;99.90;;;;;;5073895;28;20011;-79
2021/08/24 06:50:33;;;;;;;;;;;17.20;99.90;;;;;;5090156;28;20225;-79
2021/08/24 06:52:59;;;;;;;;;;;17.20;99.90;;;;;;5093644;28;19916;-77
2021/08/24 06:55:25;;;;;;;;;;;17.20;99.90;;;;;;5088813;28;20318;-77
2021/08/24 06:57:52;;;;;;;;;;;17.20;99.90;;;;;;5093651;28;19916;-79
2021/08/24 07:00:19;;;;;;;;;;;17.30;99.90;;;;;;5091679;28;19935;-76
2021/08/24 07:02:45;;;;;;;;;;;17.40;99.90;;;;;;5098153;28;19955;-77
2021/08/24 07:05:11;;;;;;;;;;;17.40;99.90;;;;;;5094094;28;19947;-77
2021/08/24 07:07:36;;;;;;;;;;;17.30;99.90;;;;;;5076985;28;19998;-78
2021/08/24 07:10:02;;;;;;;;;;;17.20;99.90;;;;;;5083501;28;20362;-78
2021/08/24 07:12:28;;;;;;;;;;;17.30;99.90;;;;;;5071153;28;19916;-80
2021/08/24 07:14:53;;;;;;;;;;;17.30;99.90;;;;;;5063065;28;20045;-76
2021/08/24 07:17:20;;;;;;;;;;;17.40;99.90;;;;;;5086132;28;19908;-77
2021/08/24 07:19:46;;;;;;;;;;;17.40;99.90;;;;;;5080585;28;19917;-78
2021/08/24 07:22:11;;;;;;;;;;;17.40;99.90;;;;;;5080180;28;19913;-79
2021/08/24 07:24:37;;;;;;;;;;;17.50;99.90;;;;;;5087687;28;20219;-78
2021/08/24 07:27:02;;;;;;;;;;;17.50;99.90;;;;;;5074582;28;19917;-79
2021/08/24 07:29:28;;;;;;;;;;;17.50;99.90;;;;;;5058558;28;19920;-78
2021/08/24 07:31:54;;;;;;;;;;;17.40;99.90;;;;;;5072716;28;19915;-78
2021/08/24 07:34:19;;;;;;;;;;;17.40;99.90;;;;;;5082287;28;20307;-77
2021/08/24 07:36:45;;;;;;;;;;;17.50;99.90;;;;;;5073643;28;19922;-77
2021/08/24 07:39:11;;;;;;;;;;;17.60;99.90;;;;;;5093376;28;20266;-77
2021/08/24 07:41:37;;;;;;;;;;;17.70;99.90;;;;;;5074617;28;19924;-79
2021/08/24 07:44:03;;;;;;;;;;;17.80;99.90;;;;;;5091330;28;19916;-78
2021/08/24 07:46:28;;;;;;;;;;;17.80;99.90;;;;;;5088671;28;19927;-78
2021/08/24 07:48:54;;;;;;;;;;;17.90;99.90;;;;;;5093132;28;19999;-77
2021/08/24 07:51:21;;;;;;;;;;;18.20;99.90;;;;;;5073519;28;20602;-78
2021/08/24 07:53:47;;;;;;;;;;;18.30;99.90;;;;;;5075641;28;19962;-79
2021/08/24 07:56:13;;;;;;;;;;;18.50;99.90;;;;;;5091490;28;19962;-77
2021/08/24 07:58:38;;;;;;;;;;;18.50;99.90;;;;;;5092553;28;20228;-77
2021/08/24 08:01:04;;;;;;;;;;;18.40;99.90;;;;;;5094452;28;20261;-78
2021/08/24 08:03:29;;;;;;;;;;;18.40;99.90;;;;;;5078144;28;19919;-77
2021/08/24 08:05:55;;;;;;;;;;;18.50;99.90;;;;;;5074881;28;20227;-76
2021/08/24 08:08:20;;;;;;;;;;;18.50;99.90;;;;;;5075975;28;21023;-79
2021/08/24 08:10:46;;;;;;;;;;;18.60;99.90;;;;;;5091533;28;20044;-79
2021/08/24 08:13:12;;;;;;;;;;;18.60;99.90;;;;;;5090448;28;19920;-78
2021/08/24 08:15:37;;;;;;;;;;;18.60;99.90;;;;;;5074540;28;20215;-77
2021/08/24 08:18:04;;;;;;;;;;;18.50;99.90;;;;;;5093186;28;19916;-80
2021/08/24 08:20:30;;;;;;;;;;;18.50;99.90;;;;;;5077404;28;20307;-76
2021/08/24 08:22:56;;;;;;;;;;;18.60;99.90;;;;;;5094129;28;19923;-77
2021/08/24 08:25:22;;;;;;;;;;;18.50;99.90;;;;;;5094533;28;19920;-79
2021/08/24 08:27:47;;;;;;;;;;;18.40;99.90;;;;;;5094995;28;19920;-78
2021/08/24 08:30:13;;;;;;;;;;;18.20;99.90;;;;;;5095311;28;19920;-79
2021/08/24 08:32:40;;;;;;;;;;;18.10;99.90;;;;;;5096345;28;19912;-77
2021/08/24 08:35:06;;;;;;;;;;;18.20;99.90;;;;;;5093372;28;19916;-78
2021/08/24 08:37:32;;;;;;;;;;;18.20;99.90;;;;;;5077297;28;19921;-78
2021/08/24 08:39:57;;;;;;;;;;;18.10;99.90;;;;;;5094643;28;20278;-78
2021/08/24 08:42:26;;;;;;;;;;;17.90;99.90;;;;;;5077175;28;19928;-79
2021/08/24 08:44:55;;;;;;;;;;;17.80;99.90;;;;;;5094156;28;19986;-78
2021/08/24 08:47:31;;;;;;;;;;;17.80;99.90;;;;;;5093589;28;20223;-78
2021/08/24 08:49:56;;;;;;;;;;;17.80;99.90;;;;;;5075028;28;19920;-80
2021/08/24 08:52:41;;;;;;;;;;;17.80;99.90;;;;;;5094685;28;19943;-80
2021/08/24 08:55:10;;;;;;;;;;;17.80;99.90;;;;;;5095489;28;19916;-78
2021/08/24 08:57:39;;;;;;;;;;;17.80;99.90;;;;;;5095859;28;19990;-78
2021/08/24 09:00:09;;;;;;;;;;;17.90;99.90;;;;;;5094955;28;19987;-77
2021/08/24 09:02:48;;;;;;;;;;;18.00;99.90;;;;;;5079959;28;19928;-79
2021/08/24 09:05:15;;;;;;;;;;;18.00;99.90;;;;;;5079990;28;20223;-77
2021/08/24 09:07:41;;;;;;;;;;;18.20;99.90;;;;;;5094666;28;19916;-81
2021/08/24 09:10:10;;;;;;;;;;;18.30;99.90;;;;;;5094342;28;19919;-77
2021/08/24 09:12:36;;;;;;;;;;;18.30;99.90;;;;;;5077869;28;20454;-77
2021/08/24 09:15:04;;;;;;;;;;;18.40;99.90;;;;;;5092526;28;19919;-79
2021/08/24 09:17:37;;;;;;;;;;;18.40;99.90;;;;;;5075929;28;19920;-80
2021/08/24 09:20:05;;;;;;;;;;;18.20;99.90;;;;;;5094040;28;19966;-80
2021/08/24 09:22:31;;;;;;;;;;;18.10;99.90;;;;;;5073740;28;19920;-79
2021/08/24 09:24:56;;;;;;;;;;;18.30;99.90;;;;;;5077499;28;19974;-77
2021/08/24 09:27:22;;;;;;;;;;;18.50;99.90;;;;;;5076075;28;19912;-76
2021/08/24 09:29:49;;;;;;;;;;;18.50;99.90;;;;;;5062846;28;19919;-78
2021/08/24 09:32:22;;;;;;;;;;;18.30;99.90;;;;;;5092170;28;19916;-78
2021/08/24 09:34:49;;;;;;;;;;;18.40;99.90;;;;;;5092654;28;19947;-79
2021/08/24 09:37:20;;;;;;;;;;;18.40;99.90;;;;;;5092493;28;19995;-79
2021/08/24 09:39:52;;;;;;;;;;;18.50;99.90;;;;;;5074219;28;19916;-78
2021/08/24 09:42:26;;;;;;;;;;;18.50;99.90;;;;;;5091129;28;20006;-77
2021/08/24 09:44:52;;;;;;;;;;;18.70;99.90;;;;;;5092488;28;19916;-79
2021/08/24 09:47:18;;;;;;;;;;;19.00;99.90;;;;;;5093806;28;19912;-78
2021/08/24 09:49:47;;;;;;;;;;;19.10;99.90;;;;;;5090885;28;20518;-77
2021/08/24 09:52:19;;;;;;;;;;;19.20;99.90;;;;;;5093938;28;20039;-79
2021/08/24 09:54:53;;;;;;;;;;;19.10;99.90;;;;;;5093223;28;19919;-78
2021/08/24 09:57:18;;;;;;;;;;;19.20;99.90;;;;;;5093154;28;19913;-78
2021/08/24 09:59:47;;;;;;;;;;;19.20;99.90;;;;;;5092869;28;19916;-77
2021/08/24 10:02:45;;;;;;;;;;;19.30;99.90;;;;;;5091378;28;19924;-77
2021/08/24 10:05:22;;;;;;;;;;;19.40;99.90;;;;;;4994612;28;19913;-79
2021/08/24 10:07:50;;;;;;;;;;;19.40;99.90;;;;;;5011107;28;20385;-78
2021/08/24 10:10:23;;;;;;;;;;;19.30;99.90;;;;;;4995432;28;19921;-78
2021/08/24 10:12:51;;;;;;;;;;;19.30;99.90;;;;;;4993599;28;19921;-78
2021/08/24 10:15:33;;;;;;;;;;;19.50;99.90;;;;;;5012471;28;19914;-77
2021/08/24 10:17:59;;;;;;;;;;;19.50;99.90;;;;;;5010669;28;19913;-76
2021/08/24 10:20:45;;;;;;;;;;;19.50;99.90;;;;;;5012109;28;19967;-78
2021/08/24 10:23:20;;;;;;;;;;;19.50;99.90;;;;;;5003284;28;19956;-75
2021/08/24 10:25:50;;;;;;;;;;;19.60;99.90;;;;;;4994087;28;19964;-80
2021/08/24 10:28:20;;;;;;;;;;;19.60;99.90;;;;;;4995094;28;19924;-77
2021/08/24 10:30:54;;;;;;;;;;;19.70;99.90;;;;;;4995258;28;19924;-79
2021/08/24 10:33:30;;;;;;;;;;;19.60;99.90;;;;;;4995845;28;20004;-81
2021/08/24 10:35:58;;;;;;;;;;;19.50;99.90;;;;;;5009343;28;19991;-79
2021/08/24 10:38:37;;;;;;;;;;;19.50;99.90;;;;;;5011151;28;19920;-77
2021/08/24 10:41:15;;;;;;;;;;;19.50;99.90;;;;;;5059647;28;20309;-78
2021/08/24 10:43:48;;;;;;;;;;;19.40;99.90;;;;;;5091736;28;19916;-80
2021/08/24 10:46:16;;;;;;;;;;;19.40;99.90;;;;;;5091567;28;19932;-79
2021/08/24 10:48:42;;;;;;;;;;;19.50;99.90;;;;;;5075913;28;19916;-78
2021/08/24 10:51:07;;;;;;;;;;;19.50;99.90;;;;;;5074047;28;19920;-76
2021/08/24 10:53:36;;;;;;;;;;;19.50;99.90;;;;;;5071478;28;19920;-78
2021/08/24 10:56:08;;;;;;;;;;;19.60;99.90;;;;;;5092515;28;19919;-79
2021/08/24 10:58:40;;;;;;;;;;;19.70;99.90;;;;;;5074219;28;19923;-79
2021/08/24 11:01:12;;;;;;;;;;;19.70;99.90;;;;;;5093438;28;19989;-77
2021/08/24 11:03:56;;;;;;;;;;;19.60;99.90;;;;;;5093683;28;20003;-76
2021/08/24 11:06:28;;;;;;;;;;;19.50;99.90;;;;;;5096108;28;19912;-79
2021/08/24 11:09:01;;;;;;;;;;;19.50;99.90;;;;;;5094941;28;20307;-75
2021/08/24 11:11:45;;;;;;;;;;;19.50;99.90;;;;;;5072657;28;19912;-76
2021/08/24 11:14:21;;;;;;;;;;;19.50;99.90;;;;;;5094617;28;19970;-80
2021/08/24 11:17:05;;;;;;;;;;;19.60;99.90;;;;;;5098189;28;20338;-77
2021/08/24 11:19:37;;;;;;;;;;;19.70;99.90;;;;;;5076084;28;20318;-77
2021/08/24 11:22:21;;;;;;;;;;;19.90;99.90;;;;;;5073635;28;19912;-79
2021/08/24 11:24:57;;;;;;;;;;;19.90;99.90;;;;;;5088200;28;20382;-78
2021/08/24 11:27:32;;;;;;;;;;;19.90;99.90;;;;;;5083583;28;19952;-80
2021/08/24 11:30:04;;;;;;;;;;;19.90;99.90;;;;;;5094418;28;19916;-78
2021/08/24 11:32:36;;;;;;;;;;;19.90;99.90;;;;;;5085404;28;19919;-79
2021/08/24 11:35:11;;;;;;;;;;;19.80;99.90;;;;;;5094038;28;19919;-78
2021/08/24 11:37:57;;;;;;;;;;;19.70;99.90;;;;;;5081724;28;20024;-76
2021/08/24 11:40:37;;;;;;;;;;;19.60;99.90;;;;;;5073841;28;19912;-78
2021/08/24 11:43:05;;;;;;;;;;;19.70;99.90;;;;;;5071641;28;20014;-78
2021/08/24 11:45:47;;;;;;;;;;;19.70;99.90;;;;;;5094684;28;19924;-76
2021/08/24 11:48:23;;;;;;;;;;;19.80;99.90;;;;;;5085236;28;19916;-79
2021/08/24 11:50:49;;;;;;;;;;;19.90;99.90;;;;;;5062145;28;19948;-78
2021/08/24 11:53:37;;;;;;;;;;;20.00;99.90;;;;;;5099960;28;19966;-78
2021/08/24 11:56:03;;;;;;;;;;;19.90;99.90;;;;;;5089825;28;19920;-78
2021/08/24 11:58:34;;;;;;;;;;;19.90;99.90;;;;;;5091349;28;19913;-80
2021/08/24 12:01:04;;;;;;;;;;;19.90;99.90;;;;;;5089635;28;19955;-84
2021/08/24 12:03:30;;;;;;;;;;;20.00;99.90;;;;;;5071721;28;19908;-80
2021/08/24 12:05:56;;;;;;;;;;;19.90;99.90;;;;;;5098210;28;20398;-78
2021/08/24 12:08:26;;;;;;;;;;;19.90;99.90;;;;;;5107290;28;20034;-79
2021/08/24 12:10:51;;;;;;;;;;;19.80;99.90;;;;;;5097294;28;19919;-76
2021/08/24 12:13:28;;;;;;;;;;;19.70;99.90;;;;;;5093944;28;19916;-79
2021/08/24 12:16:08;;;;;;;;;;;19.70;99.90;;;;;;5096957;28;20398;-79
2021/08/24 12:18:34;;;;;;;;;;;19.70;99.90;;;;;;5070431;28;19915;-78
2021/08/24 12:21:19;;;;;;;;;;;19.80;99.90;;;;;;5073279;28;20568;-79
2021/08/24 12:23:45;;;;;;;;;;;19.80;99.90;;;;;;5066523;28;19911;-80
2021/08/24 12:26:27;;;;;;;;;;;19.70;99.90;;;;;;5096549;28;20062;-78
2021/08/24 12:28:53;;;;;;;;;;;19.70;99.90;;;;;;5082502;28;20314;-80
2021/08/24 12:31:22;;;;;;;;;;;19.80;99.90;;;;;;5093744;28;19916;-81
2021/08/24 12:33:47;;;;;;;;;;;19.80;99.90;;;;;;5095692;28;19938;-78
2021/08/24 12:36:16;;;;;;;;;;;19.90;99.90;;;;;;5077357;28;19920;-78
2021/08/24 12:38:43;;;;;;;;;;;19.80;99.90;;;;;;5094486;28;20302;-79
2021/08/24 12:41:10;;;;;;;;;;;19.80;99.90;;;;;;5092721;28;19958;-77
2021/08/24 12:43:44;;;;;;;;;;;19.80;99.90;;;;;;5078156;28;19990;-79
2021/08/24 12:46:19;;;;;;;;;;;19.90;99.90;;;;;;5077359;28;19970;-79
2021/08/24 12:49:03;;;;;;;;;;;19.90;99.90;;;;;;5072776;28;20494;-78
2021/08/24 12:51:30;;;;;;;;;;;19.80;99.90;;;;;;5093881;28;20303;-77
2021/08/24 12:54:01;;;;;;;;;;;19.80;99.90;;;;;;5104498;28;19989;-78
2021/08/24 12:56:38;;;;;;;;;;;19.80;99.90;;;;;;5107235;28;19916;-77
2021/08/24 12:59:04;;;;;;;;;;;19.80;99.90;;;;;;5092711;28;20227;-78
2021/08/24 13:01:29;;;;;;;;;;;19.80;99.90;;;;;;5080394;28;19916;-77
2021/08/24 13:04:06;;;;;;;;;;;19.80;99.90;;;;;;5080515;28;19916;-77
2021/08/24 13:06:36;;;;;;;;;;;19.80;99.90;;;;;;5078062;28;20303;-79
2021/08/24 13:09:31;;;;;;;;;;;19.90;99.90;;;;;;5104873;28;19994;-79
2021/08/24 13:12:13;;;;;;;;;;;20.00;99.90;;;;;;5071318;28;19954;-77
2021/08/24 13:14:50;;;;;;;;;;;20.10;99.90;;;;;;5076905;28;19912;-80
2021/08/24 13:17:17;;;;;;;;;;;20.00;99.90;;;;;;5092545;28;19916;-79
2021/08/24 13:19:46;;;;;;;;;;;19.90;99.90;;;;;;5095586;28;19912;-80
2021/08/24 13:22:19;;;;;;;;;;;20.00;99.90;;;;;;5075732;28;20062;-79
2021/08/24 13:24:47;;;;;;;;;;;20.00;99.90;;;;;;5095794;28;19922;-75
2021/08/24 13:27:19;;;;;;;;;;;19.90;99.90;;;;;;5095458;28;19951;-79
2021/08/24 13:29:45;;;;;;;;;;;20.00;99.90;;;;;;5092760;28;20466;-77
2021/08/24 13:32:22;;;;;;;;;;;20.00;99.90;;;;;;5093937;28;19923;-76
2021/08/24 13:34:50;;;;;;;;;;;19.90;99.90;;;;;;5075585;28;20259;-77
2021/08/24 13:37:35;;;;;;;;;;;19.90;99.90;;;;;;5094318;28;19923;-78
2021/08/24 13:40:06;;;;;;;;;;;19.90;99.90;;;;;;5094985;28;19974;-76
2021/08/24 13:42:33;;;;;;;;;;;20.00;99.90;;;;;;5092974;28;20265;-76
2021/08/24 13:44:59;;;;;;;;;;;20.00;99.90;;;;;;5097017;28;19962;-75
2021/08/24 13:47:25;;;;;;;;;;;20.00;99.90;;;;;;5089058;28;20396;-76
2021/08/24 13:49:52;;;;;;;;;;;20.10;99.90;;;;;;5091529;28;19933;-77
2021/08/24 13:52:34;;;;;;;;;;;20.10;99.90;;;;;;5094302;28;19908;-76
2021/08/24 13:55:00;;;;;;;;;;;20.10;99.90;;;;;;5083531;28;19917;-78
2021/08/24 13:57:29;;;;;;;;;;;20.10;99.90;;;;;;5081916;28;20294;-76
2021/08/24 14:00:02;;;;;;;;;;;20.20;99.90;;;;;;5068057;28;19923;-80
2021/08/24 14:02:30;;;;;;;;;;;20.30;99.90;;;;;;5092746;28;19916;-77
2021/08/24 14:04:55;;;;;;;;;;;20.30;99.90;;;;;;5073962;28;19916;-77
2021/08/24 14:07:23;;;;;;;;;;;20.40;99.90;;;;;;5092444;28;19920;-79
2021/08/24 14:09:52;;;;;;;;;;;20.30;99.90;;;;;;5091500;28;19979;-81
2021/08/24 14:12:25;;;;;;;;;;;20.30;99.90;;;;;;5092913;28;20325;-80
2021/08/24 14:14:58;;;;;;;;;;;20.30;99.90;;;;;;5070238;28;19923;-77
2021/08/24 14:17:42;;;;;;;;;;;20.20;99.90;;;;;;5073865;28;20342;-76
2021/08/24 14:20:13;;;;;;;;;;;20.10;99.90;;;;;;5075382;28;20721;-81
2021/08/24 14:22:39;;;;;;;;;;;20.20;99.90;;;;;;5084392;28;19926;-77
2021/08/24 14:25:05;;;;;;;;;;;20.20;99.90;;;;;;5079880;28;19920;-78
2021/08/24 14:27:31;;;;;;;;;;;20.20;99.90;;;;;;5074557;28;20485;-77